Lake Wilson, Minnesota
Current Conditions -  °F | °C
As of 4:13 AM on Sunday 25 Jan 2015 (Local Time) from KDVP Reporting Station
Light Snow Light Snow  
Wind Chill: 22°   Ceiling: 300
Heat Index: 32°   Visibility: 2.5mi
Dew Point: 31°   Wind: 15mph
Humidity: 98%   Direction: 10°N
Pressure: 29.78"   Gusts: NA
Location:  44°N, 95.95°W
Report Text: KDVP 251013Z AUTO 01013KT 2 1/2SM -SN OVC003 00/00 A2978 RMK AO2 T00001003
Loading
Personal Weather Stations






























Interactive Weather Map New forecast layout! Learn more

10-Day Weather Forecast

Advertisements
Track Severe Weather on mobile